sensor_id;sensor_type;location;lat;lon;timestamp;temperature;humidity
22321;DHT22;11328;53.928;18.522;2023-09-19T00:00:42;22.90;99.90
22321;DHT22;11328;53.928;18.522;2023-09-19T00:03:10;22.90;99.90
22321;DHT22;11328;53.928;18.522;2023-09-19T00:05:39;22.90;99.90
22321;DHT22;11328;53.928;18.522;2023-09-19T00:08:06;22.90;99.90
22321;DHT22;11328;53.928;18.522;2023-09-19T00:10:34;22.90;99.90
22321;DHT22;11328;53.928;18.522;2023-09-19T00:13:04;22.90;99.90
22321;DHT22;11328;53.928;18.522;2023-09-19T00:15:46;22.80;99.90
22321;DHT22;11328;53.928;18.522;2023-09-19T00:18:18;22.70;99.90
22321;DHT22;11328;53.928;18.522;2023-09-19T00:20:51;22.70;99.90
22321;DHT22;11328;53.928;18.522;2023-09-19T00:23:19;22.60;99.90
22321;DHT22;11328;53.928;18.522;2023-09-19T00:25:47;22.60;99.90
22321;DHT22;11328;53.928;18.522;2023-09-19T00:28:15;22.60;99.90
22321;DHT22;11328;53.928;18.522;2023-09-19T00:30:44;22.60;99.90
22321;DHT22;11328;53.928;18.522;2023-09-19T00:33:17;22.60;99.90
22321;DHT22;11328;53.928;18.522;2023-09-19T00:35:50;22.50;99.90
22321;DHT22;11328;53.928;18.522;2023-09-19T00:38:19;22.60;99.90
22321;DHT22;11328;53.928;18.522;2023-09-19T00:40:54;22.60;99.90
22321;DHT22;11328;53.928;18.522;2023-09-19T00:43:24;22.60;99.90
22321;DHT22;11328;53.928;18.522;2023-09-19T00:45:55;22.60;99.90
22321;DHT22;11328;53.928;18.522;2023-09-19T00:48:24;22.60;99.90
22321;DHT22;11328;53.928;18.522;2023-09-19T00:51:02;22.50;99.90
22321;DHT22;11328;53.928;18.522;2023-09-19T00:53:32;22.50;99.90
22321;DHT22;11328;53.928;18.522;2023-09-19T00:56:01;22.50;99.90
22321;DHT22;11328;53.928;18.522;2023-09-19T00:58:29;22.50;99.90
22321;DHT22;11328;53.928;18.522;2023-09-19T01:01:01;22.40;99.90
22321;DHT22;11328;53.928;18.522;2023-09-19T01:03:28;22.40;99.90
22321;DHT22;11328;53.928;18.522;2023-09-19T01:05:56;22.40;99.90
22321;DHT22;11328;53.928;18.522;2023-09-19T01:08:23;22.40;99.90
22321;DHT22;11328;53.928;18.522;2023-09-19T01:11:25;22.40;99.90
22321;DHT22;11328;53.928;18.522;2023-09-19T01:13:58;22.40;99.90
22321;DHT22;11328;53.928;18.522;2023-09-19T01:16:44;22.20;99.90
22321;DHT22;11328;53.928;18.522;2023-09-19T01:22:28;22.10;99.90
22321;DHT22;11328;53.928;18.522;2023-09-19T01:31:34;22.10;99.90
22321;DHT22;11328;53.928;18.522;2023-09-19T01:34:04;22.00;99.90
22321;DHT22;11328;53.928;18.522;2023-09-19T01:36:33;22.00;99.90
22321;DHT22;11328;53.928;18.522;2023-09-19T01:39:10;21.90;99.90
22321;DHT22;11328;53.928;18.522;2023-09-19T01:42:03;21.90;99.90
22321;DHT22;11328;53.928;18.522;2023-09-19T01:47:38;21.80;99.90
22321;DHT22;11328;53.928;18.522;2023-09-19T01:50:30;21.60;99.90
22321;DHT22;11328;53.928;18.522;2023-09-19T01:53:22;21.50;99.90
22321;DHT22;11328;53.928;18.522;2023-09-19T01:55:55;21.50;99.90
22321;DHT22;11328;53.928;18.522;2023-09-19T01:59:04;21.30;99.90
22321;DHT22;11328;53.928;18.522;2023-09-19T02:01:37;21.30;99.90
22321;DHT22;11328;53.928;18.522;2023-09-19T02:04:05;21.10;99.90
22321;DHT22;11328;53.928;18.522;2023-09-19T02:06:32;21.10;99.90
22321;DHT22;11328;53.928;18.522;2023-09-19T02:09:00;20.90;99.90
22321;DHT22;11328;53.928;18.522;2023-09-19T02:11:27;20.90;99.90
22321;DHT22;11328;53.928;18.522;2023-09-19T02:13:55;21.00;99.90
22321;DHT22;11328;53.928;18.522;2023-09-19T02:16:22;21.10;99.90
22321;DHT22;11328;53.928;18.522;2023-09-19T02:18:50;21.10;99.90
22321;DHT22;11328;53.928;18.522;2023-09-19T02:21:18;21.10;99.90
22321;DHT22;11328;53.928;18.522;2023-09-19T02:23:45;21.20;99.90
22321;DHT22;11328;53.928;18.522;2023-09-19T02:26:14;21.30;99.90
22321;DHT22;11328;53.928;18.522;2023-09-19T02:28:41;21.30;99.90
22321;DHT22;11328;53.928;18.522;2023-09-19T02:31:07;21.40;99.90
22321;DHT22;11328;53.928;18.522;2023-09-19T02:33:34;21.40;99.90
22321;DHT22;11328;53.928;18.522;2023-09-19T02:36:02;21.40;99.90
22321;DHT22;11328;53.928;18.522;2023-09-19T02:38:30;21.40;99.90
22321;DHT22;11328;53.928;18.522;2023-09-19T02:40:57;21.30;99.90
22321;DHT22;11328;53.928;18.522;2023-09-19T02:43:25;21.30;99.90
22321;DHT22;11328;53.928;18.522;2023-09-19T02:45:52;21.30;99.90
22321;DHT22;11328;53.928;18.522;2023-09-19T02:48:20;21.20;99.90
22321;DHT22;11328;53.928;18.522;2023-09-19T02:50:50;21.30;99.90
22321;DHT22;11328;53.928;18.522;2023-09-19T02:53:18;21.30;99.90
22321;DHT22;11328;53.928;18.522;2023-09-19T02:55:46;21.30;99.90
22321;DHT22;11328;53.928;18.522;2023-09-19T02:58:14;21.40;99.90
22321;DHT22;11328;53.928;18.522;2023-09-19T03:00:42;21.50;99.90
22321;DHT22;11328;53.928;18.522;2023-09-19T03:03:13;21.60;99.90
22321;DHT22;11328;53.928;18.522;2023-09-19T03:05:42;21.60;99.90
22321;DHT22;11328;53.928;18.522;2023-09-19T03:08:14;21.60;99.90
22321;DHT22;11328;53.928;18.522;2023-09-19T03:10:47;21.60;99.90
22321;DHT22;11328;53.928;18.522;2023-09-19T03:13:15;21.50;99.90
22321;DHT22;11328;53.928;18.522;2023-09-19T03:15:42;21.50;99.90
22321;DHT22;11328;53.928;18.522;2023-09-19T03:18:17;21.50;99.90
22321;DHT22;11328;53.928;18.522;2023-09-19T03:20:55;21.50;99.90
22321;DHT22;11328;53.928;18.522;2023-09-19T03:23:23;21.40;99.90
22321;DHT22;11328;53.928;18.522;2023-09-19T03:25:50;21.30;99.90
22321;DHT22;11328;53.928;18.522;2023-09-19T03:28:19;21.20;99.90
22321;DHT22;11328;53.928;18.522;2023-09-19T03:31:01;21.10;99.90
22321;DHT22;11328;53.928;18.522;2023-09-19T03:33:30;21.10;99.90
22321;DHT22;11328;53.928;18.522;2023-09-19T03:36:02;21.10;99.90
22321;DHT22;11328;53.928;18.522;2023-09-19T03:38:33;21.20;99.90
22321;DHT22;11328;53.928;18.522;2023-09-19T03:41:02;21.10;99.90
22321;DHT22;11328;53.928;18.522;2023-09-19T03:43:31;21.00;99.90
22321;DHT22;11328;53.928;18.522;2023-09-19T03:46:02;20.90;99.90
22321;DHT22;11328;53.928;18.522;2023-09-19T03:48:31;20.90;99.90
22321;DHT22;11328;53.928;18.522;2023-09-19T03:50:58;21.00;99.90
22321;DHT22;11328;53.928;18.522;2023-09-19T03:53:25;21.10;99.90
22321;DHT22;11328;53.928;18.522;2023-09-19T03:55:52;21.20;99.90
22321;DHT22;11328;53.928;18.522;2023-09-19T03:58:19;21.20;99.90
22321;DHT22;11328;53.928;18.522;2023-09-19T04:00:47;21.10;99.90
22321;DHT22;11328;53.928;18.522;2023-09-19T04:03:16;21.10;99.90
22321;DHT22;11328;53.928;18.522;2023-09-19T04:05:47;21.10;99.90
22321;DHT22;11328;53.928;18.522;2023-09-19T04:08:15;21.10;99.90
22321;DHT22;11328;53.928;18.522;2023-09-19T04:10:42;21.20;99.90
22321;DHT22;11328;53.928;18.522;2023-09-19T04:13:12;21.30;99.90
22321;DHT22;11328;53.928;18.522;2023-09-19T04:15:39;21.30;99.90
22321;DHT22;11328;53.928;18.522;2023-09-19T04:18:07;21.20;99.90
22321;DHT22;11328;53.928;18.522;2023-09-19T04:20:34;21.10;99.90
22321;DHT22;11328;53.928;18.522;2023-09-19T04:23:01;21.10;99.90
22321;DHT22;11328;53.928;18.522;2023-09-19T04:25:29;21.00;99.90
22321;DHT22;11328;53.928;18.522;2023-09-19T04:27:56;21.00;99.90
22321;DHT22;11328;53.928;18.522;2023-09-19T04:30:23;20.90;99.90
22321;DHT22;11328;53.928;18.522;2023-09-19T04:32:49;20.90;99.90
22321;DHT22;11328;53.928;18.522;2023-09-19T04:35:18;21.00;99.90
22321;DHT22;11328;53.928;18.522;2023-09-19T04:37:45;21.00;99.90
22321;DHT22;11328;53.928;18.522;2023-09-19T04:40:13;20.90;99.90
22321;DHT22;11328;53.928;18.522;2023-09-19T04:42:45;20.90;99.90
22321;DHT22;11328;53.928;18.522;2023-09-19T04:45:12;20.90;99.90
22321;DHT22;11328;53.928;18.522;2023-09-19T04:47:39;20.80;99.90
22321;DHT22;11328;53.928;18.522;2023-09-19T04:50:08;20.90;99.90
22321;DHT22;11328;53.928;18.522;2023-09-19T04:52:44;20.90;99.90
22321;DHT22;11328;53.928;18.522;2023-09-19T04:55:13;20.90;99.90
22321;DHT22;11328;53.928;18.522;2023-09-19T04:57:48;21.00;99.90
22321;DHT22;11328;53.928;18.522;2023-09-19T05:00:17;21.00;99.90
22321;DHT22;11328;53.928;18.522;2023-09-19T05:02:48;21.10;99.90
22321;DHT22;11328;53.928;18.522;2023-09-19T05:05:19;21.20;99.90
22321;DHT22;11328;53.928;18.522;2023-09-19T05:07:46;21.30;99.90
22321;DHT22;11328;53.928;18.522;2023-09-19T05:10:14;21.30;99.90
22321;DHT22;11328;53.928;18.522;2023-09-19T05:12:44;21.20;99.90
22321;DHT22;11328;53.928;18.522;2023-09-19T05:15:14;21.20;99.90
22321;DHT22;11328;53.928;18.522;2023-09-19T05:17:50;21.20;99.90
22321;DHT22;11328;53.928;18.522;2023-09-19T05:20:23;21.20;99.90
22321;DHT22;11328;53.928;18.522;2023-09-19T05:23:04;21.10;99.90
22321;DHT22;11328;53.928;18.522;2023-09-19T05:25:36;21.20;99.90
22321;DHT22;11328;53.928;18.522;2023-09-19T05:28:09;21.20;99.90
22321;DHT22;11328;53.928;18.522;2023-09-19T05:30:38;21.20;99.90
22321;DHT22;11328;53.928;18.522;2023-09-19T05:33:07;21.10;99.90
22321;DHT22;11328;53.928;18.522;2023-09-19T05:35:35;21.10;99.90
22321;DHT22;11328;53.928;18.522;2023-09-19T05:38:06;21.10;99.90
22321;DHT22;11328;53.928;18.522;2023-09-19T05:40:35;21.10;99.90
22321;DHT22;11328;53.928;18.522;2023-09-19T05:43:03;21.10;99.90
22321;DHT22;11328;53.928;18.522;2023-09-19T05:45:32;21.00;99.90
22321;DHT22;11328;53.928;18.522;2023-09-19T05:48:08;20.90;99.90
22321;DHT22;11328;53.928;18.522;2023-09-19T05:50:38;20.80;99.90
22321;DHT22;11328;53.928;18.522;2023-09-19T05:53:05;20.60;99.90
22321;DHT22;11328;53.928;18.522;2023-09-19T05:55:33;20.60;99.90
22321;DHT22;11328;53.928;18.522;2023-09-19T05:58:00;20.40;99.90
22321;DHT22;11328;53.928;18.522;2023-09-19T06:00:27;20.40;99.90
22321;DHT22;11328;53.928;18.522;2023-09-19T06:02:57;20.30;99.90
22321;DHT22;11328;53.928;18.522;2023-09-19T06:05:26;20.20;99.90
22321;DHT22;11328;53.928;18.522;2023-09-19T06:07:54;20.10;99.90
22321;DHT22;11328;53.928;18.522;2023-09-19T06:10:21;19.70;99.90
22321;DHT22;11328;53.928;18.522;2023-09-19T06:12:50;19.60;99.90
22321;DHT22;11328;53.928;18.522;2023-09-19T06:15:17;19.70;99.90
22321;DHT22;11328;53.928;18.522;2023-09-19T06:17:51;19.80;99.90
22321;DHT22;11328;53.928;18.522;2023-09-19T06:20:23;19.90;99.90
22321;DHT22;11328;53.928;18.522;2023-09-19T06:22:51;19.80;99.90
22321;DHT22;11328;53.928;18.522;2023-09-19T06:25:18;19.80;99.90
22321;DHT22;11328;53.928;18.522;2023-09-19T06:27:53;19.80;99.90
22321;DHT22;11328;53.928;18.522;2023-09-19T06:30:22;19.80;99.90
22321;DHT22;11328;53.928;18.522;2023-09-19T06:32:56;19.90;99.90
22321;DHT22;11328;53.928;18.522;2023-09-19T06:35:24;20.00;99.90
22321;DHT22;11328;53.928;18.522;2023-09-19T06:37:56;20.10;99.90
22321;DHT22;11328;53.928;18.522;2023-09-19T06:40:25;20.10;99.90
22321;DHT22;11328;53.928;18.522;2023-09-19T06:42:53;20.00;99.90
22321;DHT22;11328;53.928;18.522;2023-09-19T06:45:20;20.20;99.90
22321;DHT22;11328;53.928;18.522;2023-09-19T06:47:50;20.10;99.90
22321;DHT22;11328;53.928;18.522;2023-09-19T06:50:19;20.20;99.90
22321;DHT22;11328;53.928;18.522;2023-09-19T06:52:50;20.30;99.90
22321;DHT22;11328;53.928;18.522;2023-09-19T06:55:19;20.30;99.90
22321;DHT22;11328;53.928;18.522;2023-09-19T06:57:47;20.40;99.90
22321;DHT22;11328;53.928;18.522;2023-09-19T07:00:16;20.50;99.90
22321;DHT22;11328;53.928;18.522;2023-09-19T07:03:02;20.50;99.90
22321;DHT22;11328;53.928;18.522;2023-09-19T07:05:35;20.50;99.90
22321;DHT22;11328;53.928;18.522;2023-09-19T07:08:10;20.50;99.90
22321;DHT22;11328;53.928;18.522;2023-09-19T07:10:39;20.50;99.90
22321;DHT22;11328;53.928;18.522;2023-09-19T07:13:08;20.50;99.90
22321;DHT22;11328;53.928;18.522;2023-09-19T07:15:38;20.50;99.90
22321;DHT22;11328;53.928;18.522;2023-09-19T07:18:08;20.50;99.90
22321;DHT22;11328;53.928;18.522;2023-09-19T07:20:38;20.50;99.90
22321;DHT22;11328;53.928;18.522;2023-09-19T07:23:05;20.60;99.90
22321;DHT22;11328;53.928;18.522;2023-09-19T07:25:32;20.60;99.90
22321;DHT22;11328;53.928;18.522;2023-09-19T07:28:02;20.60;99.90
22321;DHT22;11328;53.928;18.522;2023-09-19T07:30:29;20.70;99.90
22321;DHT22;11328;53.928;18.522;2023-09-19T07:32:57;20.50;99.90
22321;DHT22;11328;53.928;18.522;2023-09-19T07:35:24;20.60;99.90
22321;DHT22;11328;53.928;18.522;2023-09-19T07:37:52;20.40;99.90
22321;DHT22;11328;53.928;18.522;2023-09-19T07:40:19;20.50;99.90
22321;DHT22;11328;53.928;18.522;2023-09-19T07:42:50;20.50;99.90
22321;DHT22;11328;53.928;18.522;2023-09-19T07:45:17;20.50;99.90
22321;DHT22;11328;53.928;18.522;2023-09-19T07:47:48;20.40;99.90
22321;DHT22;11328;53.928;18.522;2023-09-19T07:50:17;20.50;99.90
22321;DHT22;11328;53.928;18.522;2023-09-19T07:52:47;20.40;99.90
22321;DHT22;11328;53.928;18.522;2023-09-19T07:55:16;20.50;99.90
22321;DHT22;11328;53.928;18.522;2023-09-19T07:57:44;20.40;99.90
22321;DHT22;11328;53.928;18.522;2023-09-19T08:00:11;20.40;99.90
22321;DHT22;11328;53.928;18.522;2023-09-19T08:02:42;20.40;99.90
22321;DHT22;11328;53.928;18.522;2023-09-19T08:05:11;20.40;99.90
22321;DHT22;11328;53.928;18.522;2023-09-19T08:07:40;20.50;99.90
22321;DHT22;11328;53.928;18.522;2023-09-19T08:10:08;20.30;99.90
22321;DHT22;11328;53.928;18.522;2023-09-19T08:12:44;20.40;99.90
22321;DHT22;11328;53.928;18.522;2023-09-19T08:15:19;20.40;99.90
22321;DHT22;11328;53.928;18.522;2023-09-19T08:17:47;20.40;99.90
22321;DHT22;11328;53.928;18.522;2023-09-19T08:20:16;20.40;99.90
22321;DHT22;11328;53.928;18.522;2023-09-19T08:22:51;20.50;99.90
22321;DHT22;11328;53.928;18.522;2023-09-19T08:25:22;20.40;99.90
22321;DHT22;11328;53.928;18.522;2023-09-19T08:27:50;20.40;99.90
22321;DHT22;11328;53.928;18.522;2023-09-19T08:30:19;20.50;99.90
22321;DHT22;11328;53.928;18.522;2023-09-19T08:32:57;20.50;99.90
22321;DHT22;11328;53.928;18.522;2023-09-19T08:35:26;20.40;99.90
22321;DHT22;11328;53.928;18.522;2023-09-19T08:37:53;20.30;99.90
22321;DHT22;11328;53.928;18.522;2023-09-19T08:40:22;20.30;99.90
22321;DHT22;11328;53.928;18.522;2023-09-19T08:42:51;20.50;99.90
22321;DHT22;11328;53.928;18.522;2023-09-19T08:45:21;20.50;99.90
22321;DHT22;11328;53.928;18.522;2023-09-19T08:48:00;20.40;99.90
22321;DHT22;11328;53.928;18.522;2023-09-19T08:50:50;20.40;99.90
22321;DHT22;11328;53.928;18.522;2023-09-19T08:56:37;20.40;99.90
22321;DHT22;11328;53.928;18.522;2023-09-19T08:59:08;20.40;99.90
22321;DHT22;11328;53.928;18.522;2023-09-19T09:01:36;20.50;99.90
22321;DHT22;11328;53.928;18.522;2023-09-19T09:04:08;20.50;99.90
22321;DHT22;11328;53.928;18.522;2023-09-19T09:06:41;20.60;99.90
22321;DHT22;11328;53.928;18.522;2023-09-19T09:09:10;20.60;99.90
22321;DHT22;11328;53.928;18.522;2023-09-19T09:11:38;20.70;99.90
22321;DHT22;11328;53.928;18.522;2023-09-19T09:14:09;21.00;99.90
22321;DHT22;11328;53.928;18.522;2023-09-19T09:16:38;21.30;99.90
22321;DHT22;11328;53.928;18.522;2023-09-19T09:19:05;21.30;99.90
22321;DHT22;11328;53.928;18.522;2023-09-19T09:21:32;21.30;99.90
22321;DHT22;11328;53.928;18.522;2023-09-19T09:24:30;21.40;99.90
22321;DHT22;11328;53.928;18.522;2023-09-19T09:27:02;21.80;99.90
22321;DHT22;11328;53.928;18.522;2023-09-19T09:29:48;21.90;99.90
22321;DHT22;11328;53.928;18.522;2023-09-19T09:32:29;21.90;99.90
22321;DHT22;11328;53.928;18.522;2023-09-19T09:35:01;22.00;99.90
22321;DHT22;11328;53.928;18.522;2023-09-19T09:37:35;22.10;99.90
22321;DHT22;11328;53.928;18.522;2023-09-19T09:40:46;22.40;99.90
22321;DHT22;11328;53.928;18.522;2023-09-19T09:43:29;22.80;99.90
22321;DHT22;11328;53.928;18.522;2023-09-19T09:48:58;22.90;99.90
22321;DHT22;11328;53.928;18.522;2023-09-19T09:54:37;22.50;99.90
22321;DHT22;11328;53.928;18.522;2023-09-19T09:57:09;22.30;99.90
22321;DHT22;11328;53.928;18.522;2023-09-19T10:02:18;22.20;99.90
22321;DHT22;11328;53.928;18.522;2023-09-19T10:04:53;22.30;99.90
22321;DHT22;11328;53.928;18.522;2023-09-19T10:07:41;22.50;99.90
22321;DHT22;11328;53.928;18.522;2023-09-19T10:10:38;22.30;99.90
22321;DHT22;11328;53.928;18.522;2023-09-19T10:13:10;22.20;99.90
22321;DHT22;11328;53.928;18.522;2023-09-19T10:15:43;21.90;99.90
22321;DHT22;11328;53.928;18.522;2023-09-19T10:18:23;21.80;99.90
22321;DHT22;11328;53.928;18.522;2023-09-19T10:20:51;22.00;99.90
22321;DHT22;11328;53.928;18.522;2023-09-19T10:23:21;22.30;99.90
22321;DHT22;11328;53.928;18.522;2023-09-19T10:25:53;22.60;99.90
22321;DHT22;11328;53.928;18.522;2023-09-19T10:28:21;22.90;99.90
22321;DHT22;11328;53.928;18.522;2023-09-19T10:30:51;23.10;99.90
22321;DHT22;11328;53.928;18.522;2023-09-19T10:33:23;23.20;99.90
22321;DHT22;11328;53.928;18.522;2023-09-19T10:35:54;23.40;99.90
22321;DHT22;11328;53.928;18.522;2023-09-19T10:38:27;23.20;99.90
22321;DHT22;11328;53.928;18.522;2023-09-19T10:40:56;23.00;99.90
22321;DHT22;11328;53.928;18.522;2023-09-19T10:43:32;23.10;99.90
22321;DHT22;11328;53.928;18.522;2023-09-19T10:46:06;23.10;99.90
22321;DHT22;11328;53.928;18.522;2023-09-19T10:48:38;23.20;99.90
22321;DHT22;11328;53.928;18.522;2023-09-19T10:51:16;23.40;99.90
22321;DHT22;11328;53.928;18.522;2023-09-19T10:53:56;23.40;99.90
22321;DHT22;11328;53.928;18.522;2023-09-19T10:56:35;23.50;99.90
22321;DHT22;11328;53.928;18.522;2023-09-19T10:59:13;23.30;99.90
22321;DHT22;11328;53.928;18.522;2023-09-19T11:01:53;23.30;99.90
22321;DHT22;11328;53.928;18.522;2023-09-19T11:04:31;23.30;99.90
22321;DHT22;11328;53.928;18.522;2023-09-19T11:07:08;23.50;99.90
22321;DHT22;11328;53.928;18.522;2023-09-19T11:09:44;23.70;99.90
22321;DHT22;11328;53.928;18.522;2023-09-19T11:14:58;23.70;99.90
22321;DHT22;11328;53.928;18.522;2023-09-19T11:17:39;23.80;99.90
22321;DHT22;11328;53.928;18.522;2023-09-19T11:20:15;23.70;99.90
22321;DHT22;11328;53.928;18.522;2023-09-19T11:30:50;23.40;99.90
22321;DHT22;11328;53.928;18.522;2023-09-19T11:33:29;23.40;99.90
22321;DHT22;11328;53.928;18.522;2023-09-19T11:36:05;23.40;99.90
22321;DHT22;11328;53.928;18.522;2023-09-19T11:46:27;23.60;99.90
22321;DHT22;11328;53.928;18.522;2023-09-19T11:49:05;23.60;99.90
22321;DHT22;11328;53.928;18.522;2023-09-19T11:51:53;23.40;99.90
22321;DHT22;11328;53.928;18.522;2023-09-19T11:54:20;23.40;99.90
22321;DHT22;11328;53.928;18.522;2023-09-19T11:57:00;23.40;99.90
22321;DHT22;11328;53.928;18.522;2023-09-19T11:59:28;23.30;99.90
22321;DHT22;11328;53.928;18.522;2023-09-19T12:01:59;23.30;99.90
22321;DHT22;11328;53.928;18.522;2023-09-19T12:04:40;23.20;99.90
22321;DHT22;11328;53.928;18.522;2023-09-19T12:07:14;23.20;99.90
22321;DHT22;11328;53.928;18.522;2023-09-19T12:09:45;23.30;99.90
22321;DHT22;11328;53.928;18.522;2023-09-19T12:12:23;23.20;99.90
22321;DHT22;11328;53.928;18.522;2023-09-19T12:14:55;23.10;99.90
22321;DHT22;11328;53.928;18.522;2023-09-19T12:17:39;23.00;99.90
22321;DHT22;11328;53.928;18.522;2023-09-19T12:20:11;22.90;99.90
22321;DHT22;11328;53.928;18.522;2023-09-19T12:22:41;22.90;99.90
22321;DHT22;11328;53.928;18.522;2023-09-19T12:25:13;22.90;99.90
22321;DHT22;11328;53.928;18.522;2023-09-19T12:27:49;23.10;99.90
22321;DHT22;11328;53.928;18.522;2023-09-19T12:30:20;23.20;99.90
22321;DHT22;11328;53.928;18.522;2023-09-19T12:32:54;23.20;99.90
22321;DHT22;11328;53.928;18.522;2023-09-19T12:35:32;23.20;99.90
22321;DHT22;11328;53.928;18.522;2023-09-19T12:38:03;23.30;99.90
22321;DHT22;11328;53.928;18.522;2023-09-19T12:40:31;23.10;99.90
22321;DHT22;11328;53.928;18.522;2023-09-19T12:43:01;23.00;99.90
22321;DHT22;11328;53.928;18.522;2023-09-19T12:45:32;22.90;99.90
22321;DHT22;11328;53.928;18.522;2023-09-19T12:51:19;22.60;99.90
22321;DHT22;11328;53.928;18.522;2023-09-19T12:53:57;22.60;99.90
22321;DHT22;11328;53.928;18.522;2023-09-19T12:56:24;22.80;99.90
22321;DHT22;11328;53.928;18.522;2023-09-19T12:58:58;22.90;99.90
22321;DHT22;11328;53.928;18.522;2023-09-19T13:01:28;22.60;99.90
22321;DHT22;11328;53.928;18.522;2023-09-19T13:04:16;22.70;99.90
22321;DHT22;11328;53.928;18.522;2023-09-19T13:06:54;22.50;99.90
22321;DHT22;11328;53.928;18.522;2023-09-19T13:09:28;22.70;99.90
22321;DHT22;11328;53.928;18.522;2023-09-19T13:12:01;22.70;99.90
22321;DHT22;11328;53.928;18.522;2023-09-19T13:14:33;22.90;99.90
22321;DHT22;11328;53.928;18.522;2023-09-19T13:17:08;23.10;99.90
22321;DHT22;11328;53.928;18.522;2023-09-19T13:19:50;22.80;99.90
22321;DHT22;11328;53.928;18.522;2023-09-19T13:22:40;22.60;99.90
22321;DHT22;11328;53.928;18.522;2023-09-19T13:25:17;22.80;99.90
22321;DHT22;11328;53.928;18.522;2023-09-19T13:27:47;23.00;99.90
22321;DHT22;11328;53.928;18.522;2023-09-19T13:30:19;23.20;99.90
22321;DHT22;11328;53.928;18.522;2023-09-19T13:32:47;23.20;99.90
22321;DHT22;11328;53.928;18.522;2023-09-19T13:35:15;23.10;99.90
22321;DHT22;11328;53.928;18.522;2023-09-19T13:37:43;23.20;99.90
22321;DHT22;11328;53.928;18.522;2023-09-19T13:40:14;23.10;99.90
22321;DHT22;11328;53.928;18.522;2023-09-19T13:42:42;23.30;99.90
22321;DHT22;11328;53.928;18.522;2023-09-19T13:45:10;23.40;99.90
22321;DHT22;11328;53.928;18.522;2023-09-19T13:47:40;23.40;99.90
22321;DHT22;11328;53.928;18.522;2023-09-19T13:50:08;23.30;99.90
22321;DHT22;11328;53.928;18.522;2023-09-19T13:52:36;23.50;99.90
22321;DHT22;11328;53.928;18.522;2023-09-19T13:55:03;23.40;99.90
22321;DHT22;11328;53.928;18.522;2023-09-19T13:57:32;23.50;99.90
22321;DHT22;11328;53.928;18.522;2023-09-19T14:00:03;23.70;99.90
22321;DHT22;11328;53.928;18.522;2023-09-19T14:02:31;23.50;99.90
22321;DHT22;11328;53.928;18.522;2023-09-19T14:04:59;23.50;99.90
22321;DHT22;11328;53.928;18.522;2023-09-19T14:07:26;23.40;99.90
22321;DHT22;11328;53.928;18.522;2023-09-19T14:09:53;22.90;99.90
22321;DHT22;11328;53.928;18.522;2023-09-19T14:12:20;22.80;99.90
22321;DHT22;11328;53.928;18.522;2023-09-19T14:14:47;22.50;99.90
22321;DHT22;11328;53.928;18.522;2023-09-19T14:17:16;22.40;99.90
22321;DHT22;11328;53.928;18.522;2023-09-19T14:19:44;22.30;99.90
22321;DHT22;11328;53.928;18.522;2023-09-19T14:22:12;22.30;99.90
22321;DHT22;11328;53.928;18.522;2023-09-19T14:24:41;22.30;99.90
22321;DHT22;11328;53.928;18.522;2023-09-19T14:27:10;22.20;99.90
22321;DHT22;11328;53.928;18.522;2023-09-19T14:29:37;22.10;99.90
22321;DHT22;11328;53.928;18.522;2023-09-19T14:32:05;22.10;99.90
22321;DHT22;11328;53.928;18.522;2023-09-19T14:34:32;22.10;99.90
22321;DHT22;11328;53.928;18.522;2023-09-19T14:36:59;22.20;99.90
22321;DHT22;11328;53.928;18.522;2023-09-19T14:39:26;22.30;99.90
22321;DHT22;11328;53.928;18.522;2023-09-19T14:41:54;22.30;99.90
22321;DHT22;11328;53.928;18.522;2023-09-19T14:44:21;22.40;99.90
22321;DHT22;11328;53.928;18.522;2023-09-19T14:46:48;22.60;99.90
22321;DHT22;11328;53.928;18.522;2023-09-19T14:49:16;22.50;99.90
22321;DHT22;11328;53.928;18.522;2023-09-19T14:51:43;22.70;99.90
22321;DHT22;11328;53.928;18.522;2023-09-19T14:54:11;22.90;99.90
22321;DHT22;11328;53.928;18.522;2023-09-19T14:56:38;22.90;99.90
22321;DHT22;11328;53.928;18.522;2023-09-19T14:59:06;22.90;99.90
22321;DHT22;11328;53.928;18.522;2023-09-19T15:01:34;22.80;99.90
22321;DHT22;11328;53.928;18.522;2023-09-19T15:04:02;22.80;99.90
22321;DHT22;11328;53.928;18.522;2023-09-19T15:06:29;22.90;99.90
22321;DHT22;11328;53.928;18.522;2023-09-19T15:08:56;22.70;99.90
22321;DHT22;11328;53.928;18.522;2023-09-19T15:11:24;22.70;99.90
22321;DHT22;11328;53.928;18.522;2023-09-19T15:13:52;22.70;99.90
22321;DHT22;11328;53.928;18.522;2023-09-19T15:16:20;22.60;99.90
22321;DHT22;11328;53.928;18.522;2023-09-19T15:18:49;22.50;99.90
22321;DHT22;11328;53.928;18.522;2023-09-19T15:21:16;22.40;99.90
22321;DHT22;11328;53.928;18.522;2023-09-19T15:23:44;22.30;99.90
22321;DHT22;11328;53.928;18.522;2023-09-19T15:26:13;22.00;99.90
22321;DHT22;11328;53.928;18.522;2023-09-19T15:28:48;22.00;99.90
22321;DHT22;11328;53.928;18.522;2023-09-19T15:31:15;21.90;99.90
22321;DHT22;11328;53.928;18.522;2023-09-19T15:33:42;21.80;99.90
22321;DHT22;11328;53.928;18.522;2023-09-19T15:36:11;21.60;99.90
22321;DHT22;11328;53.928;18.522;2023-09-19T15:39:08;21.60;99.90
22321;DHT22;11328;53.928;18.522;2023-09-19T15:41:40;21.40;99.90
22321;DHT22;11328;53.928;18.522;2023-09-19T15:44:16;21.40;99.90
22321;DHT22;11328;53.928;18.522;2023-09-19T15:46:48;21.40;99.90
22321;DHT22;11328;53.928;18.522;2023-09-19T15:49:16;21.30;99.90
22321;DHT22;11328;53.928;18.522;2023-09-19T15:51:43;21.20;99.90
22321;DHT22;11328;53.928;18.522;2023-09-19T15:54:14;21.20;99.90
22321;DHT22;11328;53.928;18.522;2023-09-19T15:56:46;21.10;99.90
22321;DHT22;11328;53.928;18.522;2023-09-19T15:59:18;21.10;99.90
22321;DHT22;11328;53.928;18.522;2023-09-19T16:01:45;21.00;99.90
22321;DHT22;11328;53.928;18.522;2023-09-19T16:04:12;20.90;99.90
22321;DHT22;11328;53.928;18.522;2023-09-19T16:06:40;20.80;99.90
22321;DHT22;11328;53.928;18.522;2023-09-19T16:09:08;20.80;99.90
22321;DHT22;11328;53.928;18.522;2023-09-19T16:11:37;20.80;99.90
22321;DHT22;11328;53.928;18.522;2023-09-19T16:14:04;20.80;99.90
22321;DHT22;11328;53.928;18.522;2023-09-19T16:16:36;20.80;99.90
22321;DHT22;11328;53.928;18.522;2023-09-19T16:19:05;20.70;99.90
22321;DHT22;11328;53.928;18.522;2023-09-19T16:21:37;20.60;99.90
22321;DHT22;11328;53.928;18.522;2023-09-19T16:24:07;20.50;99.90
22321;DHT22;11328;53.928;18.522;2023-09-19T16:26:36;20.60;99.90